createdAt,value
2019-01-05T00:00:05.481Z,0
2019-01-05T00:01:07.630Z,0
2019-01-05T00:02:10.049Z,0
2019-01-05T00:03:12.206Z,0
2019-01-05T00:04:14.365Z,0
2019-01-05T00:05:16.522Z,0
2019-01-05T00:06:18.646Z,0
2019-01-05T00:07:21.094Z,0
2019-01-05T00:08:23.276Z,0
2019-01-05T00:09:25.449Z,0
2019-01-05T00:10:27.587Z,0
2019-01-05T00:11:29.727Z,0
2019-01-05T00:12:31.914Z,0
2019-01-05T00:13:34.056Z,0
2019-01-05T00:14:36.187Z,0
2019-01-05T00:15:38.344Z,0
2019-01-05T00:16:40.479Z,0
2019-01-05T00:17:42.642Z,0
2019-01-05T00:18:44.788Z,0
2019-01-05T00:19:46.929Z,0
2019-01-05T00:20:49.355Z,0
2019-01-05T00:21:51.504Z,0
2019-01-05T00:22:53.954Z,0
2019-01-05T00:23:56.098Z,0
2019-01-05T00:24:58.522Z,0
2019-01-05T00:26:00.687Z,0
2019-01-05T00:27:02.821Z,0
2019-01-05T00:28:05.258Z,0
2019-01-05T00:29:07.665Z,0
2019-01-05T00:30:09.802Z,0
2019-01-05T00:31:11.942Z,0
2019-01-05T00:32:14.122Z,0
2019-01-05T00:33:16.263Z,0
2019-01-05T00:34:18.380Z,0
2019-01-05T00:35:20.531Z,0
2019-01-05T00:36:22.740Z,0
2019-01-05T00:37:24.869Z,0
2019-01-05T00:38:27.019Z,0
2019-01-05T00:39:29.185Z,0
2019-01-05T00:40:31.393Z,0
2019-01-05T00:41:33.610Z,0
2019-01-05T00:42:35.746Z,0
2019-01-05T00:43:37.946Z,0
2019-01-05T00:44:40.120Z,0
2019-01-05T00:45:42.289Z,0
2019-01-05T00:46:44.447Z,0
2019-01-05T00:47:46.599Z,0
2019-01-05T00:48:48.765Z,0
2019-01-05T00:49:50.914Z,0
2019-01-05T00:50:53.082Z,0
2019-01-05T00:51:55.510Z,0
2019-01-05T00:52:57.666Z,0
2019-01-05T00:53:59.818Z,0
2019-01-05T00:55:01.975Z,0
2019-01-05T00:56:04.438Z,0
2019-01-05T00:57:06.569Z,0
2019-01-05T00:58:08.715Z,0
2019-01-05T00:59:10.856Z,0
2019-01-05T01:00:13.040Z,0
2019-01-05T01:01:15.471Z,0
2019-01-05T01:02:17.608Z,0
2019-01-05T01:03:19.745Z,0
2019-01-05T01:04:22.188Z,0
2019-01-05T01:05:24.343Z,0
2019-01-05T01:06:26.775Z,0
2019-01-05T01:07:28.899Z,0
2019-01-05T01:08:31.316Z,0
2019-01-05T01:09:33.764Z,0
2019-01-05T01:10:35.891Z,0
2019-01-05T01:11:38.009Z,0
2019-01-05T01:12:40.136Z,0
2019-01-05T01:13:42.292Z,0
2019-01-05T01:14:44.979Z,0
2019-01-05T01:15:47.102Z,0
2019-01-05T01:16:49.245Z,0
2019-01-05T01:17:51.372Z,0
2019-01-05T01:18:53.517Z,0
2019-01-05T01:19:55.651Z,0
2019-01-05T01:20:58.079Z,0
2019-01-05T01:22:00.231Z,0
2019-01-05T01:23:02.371Z,0
2019-01-05T01:24:04.504Z,0
2019-01-05T01:25:06.937Z,0
2019-01-05T01:26:09.078Z,0
2019-01-05T01:27:11.226Z,0
2019-01-05T01:28:13.361Z,0
2019-01-05T01:29:15.492Z,0
2019-01-05T01:30:17.649Z,0
2019-01-05T01:31:19.775Z,0
2019-01-05T01:32:21.914Z,0
2019-01-05T01:33:24.432Z,0
2019-01-05T01:34:26.561Z,0
2019-01-05T01:35:28.705Z,0
2019-01-05T01:36:30.837Z,0
2019-01-05T01:37:33.276Z,0
2019-01-05T01:38:35.405Z,0
2019-01-05T01:39:37.842Z,0
2019-01-05T01:40:40.258Z,0
2019-01-05T01:41:42.770Z,0
2019-01-05T01:42:44.914Z,0
2019-01-05T01:43:47.049Z,0
2019-01-05T01:44:49.178Z,0
2019-01-05T01:45:51.323Z,0
2019-01-05T01:46:53.495Z,0
2019-01-05T01:47:55.649Z,0
2019-01-05T01:48:57.800Z,0
2019-01-05T01:49:59.936Z,0
2019-01-05T01:51:02.092Z,0
2019-01-05T01:52:04.221Z,0
2019-01-05T01:53:06.634Z,0
2019-01-05T01:54:08.777Z,0
2019-01-05T01:55:10.921Z,0
2019-01-05T01:56:13.066Z,0
2019-01-05T01:57:15.885Z,0
2019-01-05T01:58:17.995Z,0
2019-01-05T01:59:20.132Z,0
2019-01-05T02:00:22.301Z,0
2019-01-05T02:01:24.736Z,0
2019-01-05T02:02:28.140Z,0
2019-01-05T02:03:30.271Z,0
2019-01-05T02:04:32.429Z,0
2019-01-05T02:05:34.580Z,0
2019-01-05T02:06:36.729Z,0
2019-01-05T02:07:39.233Z,0
2019-01-05T02:08:41.640Z,0
2019-01-05T02:09:43.790Z,0
2019-01-05T02:10:45.936Z,0
2019-01-05T02:11:48.075Z,0
2019-01-05T02:12:50.204Z,0
2019-01-05T02:13:52.337Z,0
2019-01-05T02:14:54.466Z,0
2019-01-05T02:15:56.606Z,0
2019-01-05T02:16:58.748Z,0
2019-01-05T02:18:00.888Z,0
2019-01-05T02:19:03.400Z,0
2019-01-05T02:20:05.845Z,0
2019-01-05T02:21:08.302Z,0
2019-01-05T02:22:10.734Z,0
2019-01-05T02:23:12.878Z,0
2019-01-05T02:24:15.015Z,0
2019-01-05T02:25:17.181Z,0
2019-01-05T02:26:19.352Z,0
2019-01-05T02:27:21.519Z,0
2019-01-05T02:28:24.050Z,0
2019-01-05T02:29:26.195Z,0
2019-01-05T02:30:28.748Z,0
2019-01-05T02:31:30.888Z,0
2019-01-05T02:32:33.031Z,0
2019-01-05T02:33:35.205Z,0
2019-01-05T02:34:37.625Z,0
2019-01-05T02:35:39.790Z,0
2019-01-05T02:36:42.221Z,0
2019-01-05T02:37:44.406Z,0
2019-01-05T02:38:46.840Z,0
2019-01-05T02:39:48.994Z,0
2019-01-05T02:40:51.160Z,0
2019-01-05T02:41:54.279Z,0
2019-01-05T02:42:56.421Z,0
2019-01-05T02:43:58.562Z,0
2019-01-05T02:45:01.058Z,0
2019-01-05T02:46:03.257Z,0
2019-01-05T02:47:05.693Z,0
2019-01-05T02:48:07.836Z,0
2019-01-05T02:49:10.294Z,0
2019-01-05T02:50:13.094Z,0
2019-01-05T02:51:15.268Z,0
2019-01-05T02:52:17.810Z,0
2019-01-05T02:53:19.975Z,0
2019-01-05T02:54:22.114Z,0
2019-01-05T02:55:24.281Z,0
2019-01-05T02:56:26.696Z,0
2019-01-05T02:57:28.837Z,0
2019-01-05T02:58:30.965Z,0
2019-01-05T02:59:33.412Z,0
2019-01-05T03:00:36.313Z,0
2019-01-05T03:01:38.488Z,0
2019-01-05T03:02:40.634Z,0
2019-01-05T03:03:42.767Z,0
2019-01-05T03:04:44.925Z,0
2019-01-05T03:05:47.080Z,0
2019-01-05T03:06:49.517Z,0
2019-01-05T03:07:51.697Z,0
2019-01-05T03:08:53.861Z,0
2019-01-05T03:09:55.999Z,0
2019-01-05T03:10:58.129Z,0
2019-01-05T03:12:00.549Z,0
2019-01-05T03:13:03.261Z,0
2019-01-05T03:14:05.817Z,0
2019-01-05T03:15:08.273Z,0
2019-01-05T03:16:10.414Z,0
2019-01-05T03:17:12.931Z,0
2019-01-05T03:18:15.364Z,0
2019-01-05T03:19:17.514Z,0
2019-01-05T03:20:19.660Z,0
2019-01-05T03:21:21.829Z,0
2019-01-05T03:22:24.261Z,0
2019-01-05T03:23:26.711Z,0
2019-01-05T03:24:28.879Z,0
2019-01-05T03:25:31.344Z,0
2019-01-05T03:26:33.501Z,0
2019-01-05T03:27:35.910Z,0
2019-01-05T03:28:38.067Z,0
2019-01-05T03:29:40.199Z,0
2019-01-05T03:30:42.978Z,0
2019-01-05T03:31:45.450Z,0
2019-01-05T03:32:47.943Z,0
2019-01-05T03:33:50.063Z,0
2019-01-05T03:34:52.184Z,0
2019-01-05T03:35:54.320Z,0
2019-01-05T03:36:56.440Z,0
2019-01-05T03:37:58.582Z,0
2019-01-05T03:39:01.116Z,0
2019-01-05T03:40:03.833Z,0
2019-01-05T03:41:05.964Z,0
2019-01-05T03:42:08.093Z,0
2019-01-05T03:43:10.241Z,0
2019-01-05T03:44:12.383Z,0
2019-01-05T03:45:14.539Z,0
2019-01-05T03:46:16.691Z,0
2019-01-05T03:47:19.214Z,0
2019-01-05T03:48:21.381Z,0
2019-01-05T03:49:24.224Z,0
2019-01-05T03:50:26.388Z,0
2019-01-05T03:51:28.535Z,0
2019-01-05T03:52:30.692Z,0
2019-01-05T03:53:33.423Z,0
2019-01-05T03:54:35.569Z,0
2019-01-05T03:55:37.709Z,0
2019-01-05T03:56:39.880Z,0
2019-01-05T03:57:42.017Z,0
2019-01-05T03:58:44.151Z,0
2019-01-05T03:59:46.304Z,0
2019-01-05T04:00:48.422Z,0
2019-01-05T04:01:50.593Z,0
2019-01-05T04:02:53.023Z,0
2019-01-05T04:03:55.160Z,0
2019-01-05T04:04:57.274Z,0
2019-01-05T04:06:00.008Z,0
2019-01-05T04:07:02.150Z,0
2019-01-05T04:08:04.294Z,0
2019-01-05T04:09:06.437Z,0
2019-01-05T04:10:08.587Z,0
2019-01-05T04:11:11.033Z,0
2019-01-05T04:12:13.440Z,0
2019-01-05T04:13:15.566Z,0
2019-01-05T04:14:17.700Z,0
2019-01-05T04:15:19.844Z,0
2019-01-05T04:16:21.996Z,0
2019-01-05T04:17:24.448Z,0
2019-01-05T04:18:26.601Z,0
2019-01-05T04:19:28.744Z,0
2019-01-05T04:20:30.883Z,0
2019-01-05T04:21:33.019Z,0
2019-01-05T04:22:35.147Z,0
2019-01-05T04:23:37.285Z,0
2019-01-05T04:24:39.704Z,0
2019-01-05T04:25:41.834Z,0
2019-01-05T04:26:43.981Z,0
2019-01-05T04:27:46.125Z,0
2019-01-05T04:28:48.642Z,0
2019-01-05T04:29:50.777Z,0
2019-01-05T04:30:52.921Z,0
2019-01-05T04:31:55.042Z,0
2019-01-05T04:32:57.177Z,0
2019-01-05T04:33:59.331Z,0
2019-01-05T04:35:01.643Z,0
2019-01-05T04:36:03.787Z,0
2019-01-05T04:37:06.237Z,0
2019-01-05T04:38:08.387Z,0
2019-01-05T04:39:10.523Z,0
2019-01-05T04:40:12.965Z,0
2019-01-05T04:41:15.115Z,0
2019-01-05T04:42:17.266Z,0
2019-01-05T04:43:19.421Z,0
2019-01-05T04:44:21.572Z,0
2019-01-05T04:45:23.721Z,0
2019-01-05T04:46:25.858Z,0
2019-01-05T04:47:28.003Z,0
2019-01-05T04:48:30.161Z,0
2019-01-05T04:49:32.996Z,0
2019-01-05T04:50:35.442Z,0
2019-01-05T04:51:37.597Z,0
2019-01-05T04:52:40.048Z,0
2019-01-05T04:53:42.188Z,0
2019-01-05T04:54:44.349Z,0
2019-01-05T04:55:46.504Z,0
2019-01-05T04:56:49.049Z,0
2019-01-05T04:57:51.477Z,0
2019-01-05T04:58:53.925Z,0
2019-01-05T04:59:56.346Z,0
2019-01-05T05:00:58.799Z,0
2019-01-05T05:02:00.977Z,0
2019-01-05T05:03:03.693Z,0
2019-01-05T05:04:05.876Z,0
2019-01-05T05:05:07.996Z,0
2019-01-05T05:06:10.118Z,0
2019-01-05T05:07:12.244Z,0
2019-01-05T05:08:15.078Z,0
2019-01-05T05:09:17.222Z,0
2019-01-05T05:10:19.723Z,0
2019-01-05T05:11:21.862Z,0
2019-01-05T05:12:24.055Z,0
2019-01-05T05:13:26.195Z,0
2019-01-05T05:14:28.325Z,0
2019-01-05T05:15:31.299Z,0
2019-01-05T05:16:33.712Z,0
2019-01-05T05:17:35.881Z,0
2019-01-05T05:18:38.979Z,0
2019-01-05T05:19:41.116Z,0
2019-01-05T05:20:43.264Z,0
2019-01-05T05:21:45.427Z,0
2019-01-05T05:22:47.863Z,0
2019-01-05T05:23:49.998Z,0
2019-01-05T05:24:52.129Z,0
2019-01-05T05:25:54.916Z,0
2019-01-05T05:26:57.051Z,0
2019-01-05T05:27:59.204Z,0
2019-01-05T05:29:01.662Z,0
2019-01-05T05:30:03.823Z,0
2019-01-05T05:31:05.969Z,0
2019-01-05T05:32:08.104Z,0
2019-01-05T05:33:10.244Z,0
2019-01-05T05:34:12.381Z,0
2019-01-05T05:35:14.513Z,0
2019-01-05T05:36:16.667Z,0
2019-01-05T05:37:18.793Z,0
2019-01-05T05:38:20.939Z,0
2019-01-05T05:39:23.473Z,0
2019-01-05T05:40:25.621Z,0
2019-01-05T05:41:28.084Z,0
2019-01-05T05:42:30.258Z,0
2019-01-05T05:43:32.703Z,0
2019-01-05T05:44:34.826Z,0
2019-01-05T05:45:37.262Z,0
2019-01-05T05:46:39.718Z,0
2019-01-05T05:47:41.887Z,0
2019-01-05T05:48:44.026Z,0
2019-01-05T05:49:46.451Z,0
2019-01-05T05:50:48.573Z,0
2019-01-05T05:51:50.727Z,0
2019-01-05T05:52:52.883Z,0
2019-01-05T05:53:55.024Z,0
2019-01-05T05:54:57.589Z,0
2019-01-05T05:55:59.720Z,0
2019-01-05T05:57:01.852Z,0
2019-01-05T05:58:03.992Z,0
2019-01-05T05:59:06.116Z,0
2019-01-05T06:00:08.274Z,0
2019-01-05T06:01:10.424Z,0
2019-01-05T06:02:12.576Z,0
2019-01-05T06:03:15.006Z,0
2019-01-05T06:04:17.428Z,0
2019-01-05T06:05:19.583Z,0
2019-01-05T06:06:21.731Z,0
2019-01-05T06:07:24.175Z,0
2019-01-05T06:08:26.321Z,0
2019-01-05T06:09:28.465Z,0
2019-01-05T06:10:30.673Z,0
2019-01-05T06:11:33.481Z,0
2019-01-05T06:12:35.623Z,0
2019-01-05T06:13:37.752Z,0
2019-01-05T06:14:40.662Z,0
2019-01-05T06:15:42.796Z,0
2019-01-05T06:16:45.314Z,0
2019-01-05T06:17:47.430Z,0
2019-01-05T06:18:49.580Z,0
2019-01-05T06:19:52.087Z,0
2019-01-05T06:20:54.239Z,0
2019-01-05T06:21:56.380Z,0
2019-01-05T06:22:58.510Z,0
2019-01-05T06:24:00.964Z,0
2019-01-05T06:25:04.062Z,0
2019-01-05T06:26:06.194Z,0
2019-01-05T06:27:08.327Z,0
2019-01-05T06:28:10.734Z,0
2019-01-05T06:29:12.880Z,0
2019-01-05T06:30:15.295Z,0
2019-01-05T06:31:17.418Z,0
2019-01-05T06:32:19.529Z,0
2019-01-05T06:33:21.689Z,0
2019-01-05T06:34:23.811Z,0
2019-01-05T06:35:25.952Z,0
2019-01-05T06:36:28.678Z,0
2019-01-05T06:37:30.803Z,0
2019-01-05T06:38:32.949Z,0
2019-01-05T06:39:35.079Z,0
2019-01-05T06:40:37.228Z,0
2019-01-05T06:41:39.351Z,0
2019-01-05T06:42:41.509Z,0
2019-01-05T06:43:43.653Z,0
2019-01-05T06:44:45.818Z,0
2019-01-05T06:45:47.940Z,0
2019-01-05T06:46:50.104Z,0
2019-01-05T06:47:52.235Z,0
2019-01-05T06:48:54.371Z,0
2019-01-05T06:49:56.510Z,0
2019-01-05T06:50:58.636Z,0
2019-01-05T06:52:00.779Z,0
2019-01-05T06:53:03.360Z,0
2019-01-05T06:54:05.493Z,0
2019-01-05T06:55:07.623Z,0
2019-01-05T06:56:09.798Z,0
2019-01-05T06:57:11.936Z,0
2019-01-05T06:58:14.059Z,0
2019-01-05T06:59:16.212Z,0
2019-01-05T07:00:18.667Z,0
2019-01-05T07:01:20.829Z,0
2019-01-05T07:02:22.992Z,0
2019-01-05T07:03:25.129Z,0
2019-01-05T07:04:27.268Z,0
2019-01-05T07:05:29.425Z,0
2019-01-05T07:06:31.561Z,0
2019-01-05T07:07:33.683Z,0
2019-01-05T07:08:35.853Z,0
2019-01-05T07:09:38.007Z,0
2019-01-05T07:10:40.155Z,0
2019-01-05T07:11:42.296Z,0
2019-01-05T07:12:44.445Z,0
2019-01-05T07:13:46.855Z,0
2019-01-05T07:14:48.985Z,0
2019-01-05T07:15:51.132Z,0
2019-01-05T07:16:53.284Z,0
2019-01-05T07:17:55.783Z,0
2019-01-05T07:18:57.922Z,0
2019-01-05T07:20:00.077Z,0
2019-01-05T07:21:02.288Z,0
2019-01-05T07:22:04.436Z,0
2019-01-05T07:23:06.552Z,0
2019-01-05T07:24:08.689Z,0
2019-01-05T07:25:10.828Z,0
2019-01-05T07:26:12.955Z,0
2019-01-05T07:27:15.097Z,0
2019-01-05T07:28:17.229Z,0
2019-01-05T07:29:19.384Z,0
2019-01-05T07:30:21.507Z,0
2019-01-05T07:31:23.636Z,0
2019-01-05T07:32:25.774Z,0
2019-01-05T07:33:27.931Z,0
2019-01-05T07:34:30.052Z,0
2019-01-05T07:35:32.200Z,0
2019-01-05T07:36:34.343Z,0
2019-01-05T07:37:36.529Z,1
2019-01-05T07:38:38.664Z,1
2019-01-05T07:39:40.794Z,1
2019-01-05T07:40:42.928Z,1
2019-01-05T07:41:45.082Z,1
2019-01-05T07:42:47.214Z,1
2019-01-05T07:43:49.341Z,1
2019-01-05T07:44:51.468Z,1
2019-01-05T07:45:53.604Z,1
2019-01-05T07:46:55.742Z,1
2019-01-05T07:47:57.866Z,2
2019-01-05T07:48:59.994Z,2
2019-01-05T07:50:02.432Z,2
2019-01-05T07:51:04.579Z,2
2019-01-05T07:52:06.698Z,2
2019-01-05T07:53:08.829Z,2
2019-01-05T07:54:10.976Z,2
2019-01-05T07:55:13.706Z,2
2019-01-05T07:56:15.839Z,3
2019-01-05T07:57:18.279Z,3
2019-01-05T07:58:20.410Z,3
2019-01-05T07:59:22.584Z,3
2019-01-05T08:00:24.699Z,3
2019-01-05T08:01:26.846Z,3
2019-01-05T08:02:29.271Z,3
2019-01-05T08:03:31.418Z,3
2019-01-05T08:04:33.554Z,3
2019-01-05T08:05:35.686Z,3
2019-01-05T08:06:38.122Z,4
2019-01-05T08:07:40.272Z,4
2019-01-05T08:08:42.468Z,4
2019-01-05T08:09:44.593Z,4
2019-01-05T08:10:46.717Z,5
2019-01-05T08:11:48.884Z,6
2019-01-05T08:12:51.037Z,6
2019-01-05T08:13:53.611Z,7
2019-01-05T08:14:55.815Z,7
2019-01-05T08:15:57.991Z,7
2019-01-05T08:17:01.013Z,7
2019-01-05T08:18:03.464Z,7
2019-01-05T08:19:05.879Z,7
2019-01-05T08:20:08.040Z,6
2019-01-05T08:21:10.712Z,6
2019-01-05T08:22:13.200Z,6
2019-01-05T08:23:15.616Z,6
2019-01-05T08:24:18.165Z,6
2019-01-05T08:25:20.406Z,6
2019-01-05T08:26:22.574Z,6
2019-01-05T08:27:24.804Z,5
2019-01-05T08:28:26.954Z,5
2019-01-05T08:29:29.781Z,5
2019-01-05T08:30:32.016Z,5
2019-01-05T08:31:34.151Z,5
2019-01-05T08:32:36.295Z,5
2019-01-05T08:33:38.447Z,6
2019-01-05T08:34:40.792Z,6
2019-01-05T08:35:43.205Z,7
2019-01-05T08:36:45.343Z,8
2019-01-05T08:37:47.486Z,7
2019-01-05T08:38:49.805Z,7
2019-01-05T08:39:51.979Z,8
2019-01-05T08:40:54.188Z,7
2019-01-05T08:41:56.507Z,6
2019-01-05T08:42:58.870Z,7
2019-01-05T08:44:01.098Z,6
2019-01-05T08:45:03.613Z,6
2019-01-05T08:46:06.365Z,6
2019-01-05T08:47:08.749Z,7
2019-01-05T08:48:13.099Z,7
2019-01-05T08:49:15.703Z,7
2019-01-05T08:50:17.957Z,7
2019-01-05T08:51:20.101Z,8
2019-01-05T08:52:25.085Z,8
2019-01-05T08:53:28.119Z,8
2019-01-05T08:54:30.278Z,7
2019-01-05T08:55:34.227Z,8
2019-01-05T08:56:36.509Z,7
2019-01-05T08:57:38.835Z,7
2019-01-05T08:58:42.559Z,8
2019-01-05T08:59:45.942Z,9
2019-01-05T09:00:52.228Z,10
2019-01-05T09:01:57.659Z,10
2019-01-05T09:02:59.850Z,10
2019-01-05T09:04:02.002Z,10
2019-01-05T09:05:04.219Z,10
2019-01-05T09:06:07.107Z,12
2019-01-05T09:07:09.587Z,12
2019-01-05T09:08:11.782Z,13
2019-01-05T09:09:13.987Z,12
2019-01-05T09:10:16.192Z,13
2019-01-05T09:11:18.365Z,12
2019-01-05T09:12:20.553Z,14
2019-01-05T09:13:24.786Z,15
2019-01-05T09:14:27.327Z,15
2019-01-05T09:15:30.973Z,14
2019-01-05T09:16:33.411Z,12
2019-01-05T09:17:35.589Z,11
2019-01-05T09:18:37.760Z,14
2019-01-05T09:19:40.083Z,14
2019-01-05T09:20:42.202Z,15
2019-01-05T09:21:44.784Z,14
2019-01-05T09:22:54.944Z,13
2019-01-05T09:23:57.484Z,13
2019-01-05T09:25:02.442Z,14
2019-01-05T09:26:04.590Z,15
2019-01-05T09:27:06.716Z,15
2019-01-05T09:28:08.849Z,15
2019-01-05T09:29:10.996Z,16
2019-01-05T09:30:13.710Z,19
2019-01-05T09:31:16.284Z,19
2019-01-05T09:32:18.789Z,19
2019-01-05T09:33:21.779Z,21
2019-01-05T09:34:23.921Z,17
2019-01-05T09:35:26.088Z,14
2019-01-05T09:36:28.403Z,14
2019-01-05T09:37:30.660Z,15
2019-01-05T09:38:33.070Z,19
2019-01-05T09:39:35.216Z,24
2019-01-05T09:40:37.744Z,18
2019-01-05T09:41:39.903Z,15
2019-01-05T09:42:42.047Z,19
2019-01-05T09:43:44.207Z,21
2019-01-05T09:44:46.353Z,15
2019-01-05T09:45:48.491Z,15
2019-01-05T09:46:50.650Z,24
2019-01-05T09:47:53.081Z,17
2019-01-05T09:48:55.230Z,16
2019-01-05T09:49:57.360Z,22
2019-01-05T09:50:59.514Z,21
2019-01-05T09:52:02.082Z,24
2019-01-05T09:53:04.268Z,24
2019-01-05T09:54:06.977Z,29
2019-01-05T09:55:09.112Z,36
2019-01-05T09:56:11.260Z,35
2019-01-05T09:57:13.409Z,28
2019-01-05T09:58:15.549Z,26
2019-01-05T09:59:17.708Z,27
2019-01-05T10:00:19.861Z,26
2019-01-05T10:01:22.023Z,27
2019-01-05T10:02:24.166Z,28
2019-01-05T10:03:26.323Z,27
2019-01-05T10:04:28.750Z,26
2019-01-05T10:05:30.887Z,30
2019-01-05T10:06:33.306Z,31
2019-01-05T10:07:35.436Z,29
2019-01-05T10:08:37.578Z,28
2019-01-05T10:09:40.032Z,26
2019-01-05T10:10:42.464Z,25
2019-01-05T10:11:44.629Z,23
2019-01-05T10:12:47.049Z,26
2019-01-05T10:13:49.179Z,30
2019-01-05T10:14:51.581Z,28
2019-01-05T10:15:53.716Z,24
2019-01-05T10:16:55.861Z,25
2019-01-05T10:17:58.016Z,20
2019-01-05T10:19:00.178Z,25
2019-01-05T10:20:02.331Z,25
2019-01-05T10:21:04.761Z,19
2019-01-05T10:22:06.904Z,23
2019-01-05T10:23:09.051Z,23
2019-01-05T10:24:11.174Z,21
2019-01-05T10:25:13.325Z,21
2019-01-05T10:26:15.465Z,19
2019-01-05T10:27:17.599Z,20
2019-01-05T10:28:19.744Z,19
2019-01-05T10:29:21.873Z,20
2019-01-05T10:30:24.021Z,20
2019-01-05T10:31:26.443Z,22
2019-01-05T10:32:28.903Z,24
2019-01-05T10:33:31.064Z,24
2019-01-05T10:34:33.726Z,22
2019-01-05T10:35:36.565Z,24
2019-01-05T10:36:38.694Z,21
2019-01-05T10:37:40.839Z,23
2019-01-05T10:38:42.957Z,22
2019-01-05T10:39:45.077Z,17
2019-01-05T10:40:47.336Z,16
2019-01-05T10:41:49.480Z,13
2019-01-05T10:42:51.638Z,14
2019-01-05T10:43:53.782Z,20
2019-01-05T10:44:55.910Z,16
2019-01-05T10:45:58.365Z,20
2019-01-05T10:47:00.800Z,20
2019-01-05T10:48:02.956Z,20
2019-01-05T10:49:05.095Z,21
2019-01-05T10:50:07.231Z,25
2019-01-05T10:51:09.366Z,24
2019-01-05T10:52:11.505Z,22
2019-01-05T10:53:13.619Z,24
2019-01-05T10:54:15.747Z,28
2019-01-05T10:55:17.910Z,29
2019-01-05T10:56:20.067Z,32
2019-01-05T10:57:22.202Z,36
2019-01-05T10:58:24.955Z,32
2019-01-05T10:59:27.380Z,32
2019-01-05T11:00:29.532Z,31
2019-01-05T11:01:31.684Z,27
2019-01-05T11:02:33.819Z,20
2019-01-05T11:03:35.995Z,19
2019-01-05T11:04:38.158Z,27
2019-01-05T11:05:42.959Z,31
2019-01-05T11:06:46.130Z,28
2019-01-05T11:07:49.159Z,28
2019-01-05T11:08:55.141Z,23
2019-01-05T11:09:58.585Z,18
2019-01-05T11:11:08.012Z,22
2019-01-05T11:12:10.791Z,20
2019-01-05T11:13:13.242Z,21
2019-01-05T11:14:15.676Z,18
2019-01-05T11:15:17.987Z,22
2019-01-05T11:16:20.164Z,20
2019-01-05T11:17:23.490Z,21
2019-01-05T11:18:25.666Z,19
2019-01-05T11:19:27.798Z,21
2019-01-05T11:20:36.746Z,22
2019-01-05T11:21:39.025Z,24
2019-01-05T11:22:41.179Z,25
2019-01-05T11:23:43.771Z,25
2019-01-05T11:24:46.132Z,33
2019-01-05T11:25:48.836Z,28
2019-01-05T11:26:50.998Z,30
2019-01-05T11:27:53.148Z,34
2019-01-05T11:28:56.157Z,25
2019-01-05T11:29:58.488Z,29
2019-01-05T11:31:02.172Z,25
2019-01-05T11:32:04.753Z,31
2019-01-05T11:33:07.379Z,31
2019-01-05T11:34:09.727Z,29
2019-01-05T11:35:11.897Z,35
2019-01-05T11:36:14.044Z,39
2019-01-05T11:37:16.193Z,40
2019-01-05T11:38:18.348Z,38
2019-01-05T11:39:20.489Z,43
2019-01-05T11:40:23.460Z,42
2019-01-05T11:41:25.635Z,39
2019-01-05T11:42:27.786Z,46
2019-01-05T11:43:29.961Z,47
2019-01-05T11:44:32.263Z,52
2019-01-05T11:45:34.456Z,58
2019-01-05T11:46:36.607Z,142
2019-01-05T11:47:38.757Z,67
2019-01-05T11:48:40.914Z,55
2019-01-05T11:49:43.384Z,47
2019-01-05T11:50:46.248Z,47
2019-01-05T11:51:48.439Z,75
2019-01-05T11:52:50.900Z,61
2019-01-05T11:53:53.081Z,136
2019-01-05T11:54:55.248Z,56
2019-01-05T11:55:57.463Z,60
2019-01-05T11:56:59.911Z,61
2019-01-05T11:58:02.103Z,55
2019-01-05T11:59:04.256Z,141
2019-01-05T12:00:06.697Z,68
2019-01-05T12:01:08.884Z,76
2019-01-05T12:02:11.067Z,62
2019-01-05T12:03:13.239Z,61
2019-01-05T12:04:15.374Z,67
2019-01-05T12:05:17.568Z,62
2019-01-05T12:06:19.787Z,59
2019-01-05T12:07:22.000Z,49
2019-01-05T12:08:24.210Z,36
2019-01-05T12:09:26.431Z,39
2019-01-05T12:10:28.646Z,43
2019-01-05T12:11:30.863Z,49
2019-01-05T12:12:33.039Z,49
2019-01-05T12:13:35.477Z,35
2019-01-05T12:14:37.632Z,32
2019-01-05T12:15:39.811Z,26
2019-01-05T12:16:42.332Z,27
2019-01-05T12:17:44.482Z,28
2019-01-05T12:18:46.627Z,24
2019-01-05T12:19:48.779Z,17
2019-01-05T12:20:50.951Z,16
2019-01-05T12:21:53.392Z,16
2019-01-05T12:22:55.532Z,17
2019-01-05T12:23:57.693Z,15
2019-01-05T12:24:59.880Z,13
2019-01-05T12:26:02.048Z,16
2019-01-05T12:27:04.218Z,18
2019-01-05T12:28:06.367Z,19
2019-01-05T12:29:09.065Z,17
2019-01-05T12:30:11.207Z,16
2019-01-05T12:31:13.377Z,16
2019-01-05T12:32:15.519Z,16
2019-01-05T12:33:17.943Z,18
2019-01-05T12:34:20.096Z,19
2019-01-05T12:35:22.248Z,24
2019-01-05T12:36:24.397Z,26
2019-01-05T12:37:26.823Z,26
2019-01-05T12:38:29.015Z,27
2019-01-05T12:39:31.157Z,30
2019-01-05T12:40:33.300Z,38
2019-01-05T12:41:35.448Z,38
2019-01-05T12:42:37.872Z,34
2019-01-05T12:43:40.011Z,35
2019-01-05T12:44:42.165Z,40
2019-01-05T12:45:44.616Z,34
2019-01-05T12:46:49.051Z,33
2019-01-05T12:47:51.201Z,37
2019-01-05T12:48:53.364Z,36
2019-01-05T12:49:55.820Z,34
2019-01-05T12:50:57.970Z,35
2019-01-05T12:52:00.117Z,29
2019-01-05T12:53:02.264Z,25
2019-01-05T12:54:04.422Z,25
2019-01-05T12:55:06.989Z,28
2019-01-05T12:56:09.132Z,24
2019-01-05T12:57:11.281Z,22
2019-01-05T12:58:13.416Z,23
2019-01-05T12:59:15.553Z,24
2019-01-05T13:00:17.687Z,20
2019-01-05T13:01:20.227Z,18
2019-01-05T13:02:22.366Z,21
2019-01-05T13:03:24.531Z,23
2019-01-05T13:04:26.729Z,23
2019-01-05T13:05:28.873Z,24
2019-01-05T13:06:31.011Z,21
2019-01-05T13:07:33.232Z,22
2019-01-05T13:08:35.392Z,21
2019-01-05T13:09:37.543Z,23
2019-01-05T13:10:40.203Z,27
2019-01-05T13:11:42.872Z,26
2019-01-05T13:12:45.365Z,19
2019-01-05T13:13:48.124Z,17
2019-01-05T13:14:50.317Z,17
2019-01-05T13:15:52.456Z,16
2019-01-05T13:16:56.024Z,18
2019-01-05T13:17:58.166Z,17
2019-01-05T13:19:00.605Z,16
2019-01-05T13:20:03.161Z,16
2019-01-05T13:21:05.289Z,15
2019-01-05T13:22:07.429Z,15
2019-01-05T13:23:09.566Z,14
2019-01-05T13:24:11.999Z,15
2019-01-05T13:25:14.551Z,14
2019-01-05T13:26:16.717Z,14
2019-01-05T13:27:20.165Z,16
2019-01-05T13:28:24.228Z,14
2019-01-05T13:29:33.666Z,15
2019-01-05T13:30:38.054Z,17
2019-01-05T13:31:41.691Z,17
2019-01-05T13:32:48.603Z,22
2019-01-05T13:33:51.143Z,22
2019-01-05T13:34:53.731Z,24
2019-01-05T13:35:56.206Z,21
2019-01-05T13:36:58.622Z,22
2019-01-05T13:38:01.143Z,22
2019-01-05T13:39:03.306Z,20
2019-01-05T13:40:05.609Z,17
2019-01-05T13:41:07.914Z,14
2019-01-05T13:42:10.352Z,12
2019-01-05T13:43:14.006Z,12
2019-01-05T13:44:17.358Z,12
2019-01-05T13:45:19.841Z,11
2019-01-05T13:46:22.227Z,10
2019-01-05T13:47:27.899Z,10
2019-01-05T13:48:30.070Z,11
2019-01-05T13:49:32.524Z,9
2019-01-05T13:50:36.237Z,8
2019-01-05T13:51:38.533Z,10
2019-01-05T13:52:40.778Z,9
2019-01-05T13:53:45.721Z,9
2019-01-05T13:54:48.218Z,8
2019-01-05T13:55:53.269Z,7
2019-01-05T13:56:57.277Z,8
2019-01-05T13:57:59.707Z,9
2019-01-05T13:59:02.432Z,8
2019-01-05T14:00:04.757Z,7
2019-01-05T14:01:07.187Z,6
2019-01-05T14:02:09.581Z,6
2019-01-05T14:03:11.735Z,6
2019-01-05T14:04:14.180Z,6
2019-01-05T14:05:21.779Z,7
2019-01-05T14:06:24.594Z,6
2019-01-05T14:07:27.015Z,6
2019-01-05T14:08:29.355Z,6
2019-01-05T14:09:33.906Z,6
2019-01-05T14:10:36.719Z,6
2019-01-05T14:11:38.870Z,5
2019-01-05T14:12:41.009Z,5
2019-01-05T14:13:43.149Z,4
2019-01-05T14:14:45.291Z,4
2019-01-05T14:15:47.708Z,4
2019-01-05T14:16:49.873Z,5
2019-01-05T14:17:52.032Z,5
2019-01-05T14:18:54.173Z,5
2019-01-05T14:19:56.389Z,5
2019-01-05T14:20:58.526Z,5
2019-01-05T14:22:00.690Z,4
2019-01-05T14:23:02.838Z,4
2019-01-05T14:24:04.976Z,4
2019-01-05T14:25:07.125Z,4
2019-01-05T14:26:09.256Z,3
2019-01-05T14:27:11.398Z,3
2019-01-05T14:28:13.538Z,3
2019-01-05T14:29:15.677Z,3
2019-01-05T14:30:17.822Z,2
2019-01-05T14:31:19.954Z,2
2019-01-05T14:32:22.101Z,2
2019-01-05T14:33:24.632Z,2
2019-01-05T14:34:26.769Z,2
2019-01-05T14:35:28.915Z,2
2019-01-05T14:36:31.067Z,2
2019-01-05T14:37:33.513Z,2
2019-01-05T14:38:36.025Z,2
2019-01-05T14:39:38.176Z,2
2019-01-05T14:40:44.097Z,2
2019-01-05T14:41:47.941Z,1
2019-01-05T14:42:50.068Z,1
2019-01-05T14:43:52.610Z,1
2019-01-05T14:44:54.765Z,1
2019-01-05T14:45:57.185Z,1
2019-01-05T14:46:59.625Z,1
2019-01-05T14:48:01.808Z,1
2019-01-05T14:49:03.948Z,1
2019-01-05T14:50:06.086Z,1
2019-01-05T14:51:08.258Z,1
2019-01-05T14:52:10.419Z,1
2019-01-05T14:53:12.606Z,1
2019-01-05T14:54:14.743Z,1
2019-01-05T14:55:16.874Z,1
2019-01-05T14:56:19.027Z,1
2019-01-05T14:57:21.160Z,1
2019-01-05T14:58:23.343Z,1
2019-01-05T14:59:25.487Z,1
2019-01-05T15:00:28.595Z,0
2019-01-05T15:01:31.175Z,0
2019-01-05T15:02:34.338Z,0
2019-01-05T15:03:38.622Z,0
2019-01-05T15:04:44.115Z,0
2019-01-05T15:05:46.707Z,0
2019-01-05T15:06:49.301Z,0
2019-01-05T15:07:52.980Z,0
2019-01-05T15:08:55.663Z,0
2019-01-05T15:09:58.074Z,0
2019-01-05T15:11:00.419Z,0